sensor_id;sensor_type;location;lat;lon;timestamp;pressure;altitude;pressure_sealevel;temperature;humidity
84758;BME280;74981;52.476;16.656;2024-03-23T00:56:02;99684.06;;;10.46;82.63
84758;BME280;74981;52.476;16.656;2024-03-23T01:01:04;99676.65;;;10.43;82.43
84758;BME280;74981;52.476;16.656;2024-03-23T01:06:06;99664.02;;;10.46;82.25
84758;BME280;74981;52.476;16.656;2024-03-23T01:11:09;99658.55;;;10.47;82.42
84758;BME280;74981;52.476;16.656;2024-03-23T01:16:11;99664.91;;;10.44;82.54
84758;BME280;74981;52.476;16.656;2024-03-23T01:21:13;99655.91;;;10.39;82.77
84758;BME280;74981;52.476;16.656;2024-03-23T01:26:16;99647.27;;;10.40;82.41
84758;BME280;74981;52.476;16.656;2024-03-23T01:31:18;99644.61;;;10.41;82.49
84758;BME280;74981;52.476;16.656;2024-03-23T01:36:20;99634.73;;;10.41;82.54
84758;BME280;74981;52.476;16.656;2024-03-23T01:41:24;99629.13;;;10.44;82.43
84758;BME280;74981;52.476;16.656;2024-03-23T01:46:27;99626.10;;;10.44;82.43
84758;BME280;74981;52.476;16.656;2024-03-23T01:51:30;99621.08;;;10.46;82.37
84758;BME280;74981;52.476;16.656;2024-03-23T01:56:33;99607.30;;;10.44;82.46
84758;BME280;74981;52.476;16.656;2024-03-23T02:01:36;99599.13;;;10.45;82.35
84758;BME280;74981;52.476;16.656;2024-03-23T02:06:38;99593.36;;;10.46;82.30
84758;BME280;74981;52.476;16.656;2024-03-23T02:11:41;99591.52;;;10.48;82.39
84758;BME280;74981;52.476;16.656;2024-03-23T02:16:43;99590.61;;;10.48;82.30
84758;BME280;74981;52.476;16.656;2024-03-23T02:21:46;99578.96;;;10.48;82.31
84758;BME280;74981;52.476;16.656;2024-03-23T02:26:48;99580.16;;;10.50;82.16
84758;BME280;74981;52.476;16.656;2024-03-23T02:31:50;99581.27;;;10.50;82.24
84758;BME280;74981;52.476;16.656;2024-03-23T02:36:53;99572.34;;;10.46;82.29
84758;BME280;74981;52.476;16.656;2024-03-23T02:41:55;99572.25;;;10.49;82.16
84758;BME280;74981;52.476;16.656;2024-03-23T02:46:57;99572.01;;;10.48;82.52
84758;BME280;74981;52.476;16.656;2024-03-23T02:51:59;99572.04;;;10.46;82.32
84758;BME280;74981;52.476;16.656;2024-03-23T02:57:02;99563.20;;;10.43;82.50
84758;BME280;74981;52.476;16.656;2024-03-23T03:02:04;99555.10;;;10.43;82.34
84758;BME280;74981;52.476;16.656;2024-03-23T03:07:07;99550.43;;;10.43;82.41
84758;BME280;74981;52.476;16.656;2024-03-23T03:12:09;99534.44;;;10.40;82.41
84758;BME280;74981;52.476;16.656;2024-03-23T03:17:12;99533.62;;;10.43;82.13
84758;BME280;74981;52.476;16.656;2024-03-23T03:22:14;99534.20;;;10.46;82.15
84758;BME280;74981;52.476;16.656;2024-03-23T03:27:16;99531.05;;;10.46;82.25
84758;BME280;74981;52.476;16.656;2024-03-23T03:32:19;99524.12;;;10.43;82.14
84758;BME280;74981;52.476;16.656;2024-03-23T03:37:21;99512.11;;;10.45;82.11
84758;BME280;74981;52.476;16.656;2024-03-23T03:42:23;99516.77;;;10.44;82.00
84758;BME280;74981;52.476;16.656;2024-03-23T03:47:26;99518.02;;;10.08;81.02
84758;BME280;74981;52.476;16.656;2024-03-23T03:52:28;99518.41;;;9.65;81.29
84758;BME280;74981;52.476;16.656;2024-03-23T03:57:30;99522.80;;;9.39;81.80
84758;BME280;74981;52.476;16.656;2024-03-23T04:02:32;99528.11;;;9.22;82.12
84758;BME280;74981;52.476;16.656;2024-03-23T04:07:35;99540.11;;;9.09;82.70
84758;BME280;74981;52.476;16.656;2024-03-23T04:12:37;99538.15;;;8.97;82.99
84758;BME280;74981;52.476;16.656;2024-03-23T04:17:40;99533.30;;;8.79;82.74
84758;BME280;74981;52.476;16.656;2024-03-23T04:22:42;99528.75;;;8.61;83.04
84758;BME280;74981;52.476;16.656;2024-03-23T04:27:45;99523.73;;;8.49;83.32
84758;BME280;74981;52.476;16.656;2024-03-23T04:32:47;99515.94;;;8.36;83.50
84758;BME280;74981;52.476;16.656;2024-03-23T04:37:49;99508.80;;;8.29;83.28
84758;BME280;74981;52.476;16.656;2024-03-23T04:42:51;99486.15;;;8.21;84.05
84758;BME280;74981;52.476;16.656;2024-03-23T04:47:53;99474.77;;;8.10;83.71
84758;BME280;74981;52.476;16.656;2024-03-23T04:52:56;99469.80;;;8.06;83.77
84758;BME280;74981;52.476;16.656;2024-03-23T04:57:58;99460.42;;;7.99;84.51
84758;BME280;74981;52.476;16.656;2024-03-23T05:03:00;99455.52;;;7.91;84.39
84758;BME280;74981;52.476;16.656;2024-03-23T05:08:03;99447.63;;;7.89;84.53
84758;BME280;74981;52.476;16.656;2024-03-23T05:13:05;99453.27;;;7.88;84.59
84758;BME280;74981;52.476;16.656;2024-03-23T05:18:08;99442.39;;;7.88;84.80
84758;BME280;74981;52.476;16.656;2024-03-23T05:23:10;99438.95;;;7.85;84.63
84758;BME280;74981;52.476;16.656;2024-03-23T05:28:12;99447.01;;;7.86;84.78
84758;BME280;74981;52.476;16.656;2024-03-23T05:33:15;99451.48;;;7.86;84.50
84758;BME280;74981;52.476;16.656;2024-03-23T05:38:17;99449.74;;;7.89;84.23
84758;BME280;74981;52.476;16.656;2024-03-23T05:43:19;99446.93;;;7.89;84.11
84758;BME280;74981;52.476;16.656;2024-03-23T05:48:22;99446.48;;;7.88;83.49
84758;BME280;74981;52.476;16.656;2024-03-23T05:53:24;99453.63;;;7.90;83.61
84758;BME280;74981;52.476;16.656;2024-03-23T05:58:27;99444.02;;;7.91;83.28
84758;BME280;74981;52.476;16.656;2024-03-23T06:03:29;99440.77;;;7.86;83.40
84758;BME280;74981;52.476;16.656;2024-03-23T06:08:32;99436.91;;;7.85;83.19
84758;BME280;74981;52.476;16.656;2024-03-23T06:13:34;99435.03;;;7.87;83.60
84758;BME280;74981;52.476;16.656;2024-03-23T06:18:36;99440.23;;;7.90;83.50
84758;BME280;74981;52.476;16.656;2024-03-23T06:23:38;99433.68;;;7.93;83.41
84758;BME280;74981;52.476;16.656;2024-03-23T06:28:40;99429.99;;;8.00;83.85
84758;BME280;74981;52.476;16.656;2024-03-23T06:33:43;99419.59;;;8.07;83.35
84758;BME280;74981;52.476;16.656;2024-03-23T06:38:46;99405.09;;;8.05;83.34
84758;BME280;74981;52.476;16.656;2024-03-23T06:43:48;99392.66;;;8.10;83.70
84758;BME280;74981;52.476;16.656;2024-03-23T06:48:50;99388.38;;;8.10;83.21
84758;BME280;74981;52.476;16.656;2024-03-23T06:53:52;99387.63;;;8.07;83.36
84758;BME280;74981;52.476;16.656;2024-03-23T06:58:55;99368.77;;;8.07;83.32
84758;BME280;74981;52.476;16.656;2024-03-23T07:03:57;99358.76;;;8.01;83.20
84758;BME280;74981;52.476;16.656;2024-03-23T07:08:59;99347.05;;;8.00;83.35
84758;BME280;74981;52.476;16.656;2024-03-23T07:14:01;99349.88;;;8.04;83.20
84758;BME280;74981;52.476;16.656;2024-03-23T07:19:04;99349.54;;;7.98;83.34
84758;BME280;74981;52.476;16.656;2024-03-23T07:24:07;99359.94;;;7.94;83.30
84758;BME280;74981;52.476;16.656;2024-03-23T07:29:10;99351.03;;;8.03;82.88
84758;BME280;74981;52.476;16.656;2024-03-23T07:34:12;99344.38;;;8.23;83.27
84758;BME280;74981;52.476;16.656;2024-03-23T07:39:15;99345.40;;;8.32;82.98
84758;BME280;74981;52.476;16.656;2024-03-23T07:44:17;99339.36;;;8.34;82.58
84758;BME280;74981;52.476;16.656;2024-03-23T07:49:19;99337.50;;;8.51;82.91
84758;BME280;74981;52.476;16.656;2024-03-23T07:54:22;99332.16;;;8.58;82.11
84758;BME280;74981;52.476;16.656;2024-03-23T07:59:24;99308.00;;;8.57;82.13
84758;BME280;74981;52.476;16.656;2024-03-23T08:04:27;99281.05;;;8.70;82.82
84758;BME280;74981;52.476;16.656;2024-03-23T08:09:30;99254.87;;;8.84;82.09
84758;BME280;74981;52.476;16.656;2024-03-23T08:14:32;99247.31;;;8.73;82.04
84758;BME280;74981;52.476;16.656;2024-03-23T08:19:34;99242.33;;;8.62;81.86
84758;BME280;74981;52.476;16.656;2024-03-23T08:24:36;99281.90;;;8.59;82.22
84758;BME280;74981;52.476;16.656;2024-03-23T08:29:39;99281.61;;;8.56;81.87
84758;BME280;74981;52.476;16.656;2024-03-23T08:34:41;99279.41;;;8.54;81.76
84758;BME280;74981;52.476;16.656;2024-03-23T08:39:44;99265.32;;;8.58;81.69
84758;BME280;74981;52.476;16.656;2024-03-23T08:44:47;99251.93;;;8.58;82.09
84758;BME280;74981;52.476;16.656;2024-03-23T08:49:49;99236.40;;;8.54;82.18
84758;BME280;74981;52.476;16.656;2024-03-23T08:54:51;99225.92;;;8.54;81.92
84758;BME280;74981;52.476;16.656;2024-03-23T08:59:53;99221.66;;;8.48;82.43
84758;BME280;74981;52.476;16.656;2024-03-23T09:04:55;99200.56;;;8.45;82.82
84758;BME280;74981;52.476;16.656;2024-03-23T09:09:58;99189.33;;;8.50;82.43
84758;BME280;74981;52.476;16.656;2024-03-23T09:15:00;99184.09;;;8.56;82.65
84758;BME280;74981;52.476;16.656;2024-03-23T09:20:03;99191.15;;;8.57;82.38
84758;BME280;74981;52.476;16.656;2024-03-23T09:25:07;99190.71;;;8.56;81.89
84758;BME280;74981;52.476;16.656;2024-03-23T09:30:11;99187.97;;;8.44;81.98
84758;BME280;74981;52.476;16.656;2024-03-23T09:35:13;99177.06;;;8.32;82.39
84758;BME280;74981;52.476;16.656;2024-03-23T09:40:16;99164.10;;;8.27;82.59
84758;BME280;74981;52.476;16.656;2024-03-23T09:45:22;99161.66;;;8.17;81.61
84758;BME280;74981;52.476;16.656;2024-03-23T09:50:24;99153.25;;;8.14;82.27
84758;BME280;74981;52.476;16.656;2024-03-23T09:55:26;99150.57;;;8.11;82.67
84758;BME280;74981;52.476;16.656;2024-03-23T10:00:29;99143.61;;;8.08;82.63
84758;BME280;74981;52.476;16.656;2024-03-23T10:05:31;99139.56;;;7.98;83.00
84758;BME280;74981;52.476;16.656;2024-03-23T10:10:34;99149.33;;;7.88;83.15
84758;BME280;74981;52.476;16.656;2024-03-23T10:15:37;99146.96;;;7.82;83.41
84758;BME280;74981;52.476;16.656;2024-03-23T10:20:40;99148.84;;;7.79;83.47
84758;BME280;74981;52.476;16.656;2024-03-23T10:25:43;99149.48;;;7.75;83.44
84758;BME280;74981;52.476;16.656;2024-03-23T10:30:45;99140.14;;;7.72;83.72
84758;BME280;74981;52.476;16.656;2024-03-23T10:35:47;99124.34;;;7.73;84.23
84758;BME280;74981;52.476;16.656;2024-03-23T10:40:51;99119.33;;;7.83;84.20
84758;BME280;74981;52.476;16.656;2024-03-23T10:45:53;99112.14;;;7.92;84.22
84758;BME280;74981;52.476;16.656;2024-03-23T10:50:56;99101.39;;;8.03;84.48
84758;BME280;74981;52.476;16.656;2024-03-23T10:55:59;99095.05;;;8.12;84.01
84758;BME280;74981;52.476;16.656;2024-03-23T11:01:03;99082.14;;;8.14;83.82
84758;BME280;74981;52.476;16.656;2024-03-23T11:06:06;99077.63;;;8.21;83.99
84758;BME280;74981;52.476;16.656;2024-03-23T11:11:17;99061.99;;;8.24;83.88
84758;BME280;74981;52.476;16.656;2024-03-23T11:16:23;99036.13;;;8.35;83.56
84758;BME280;74981;52.476;16.656;2024-03-23T11:21:53;99033.29;;;8.28;83.31
84758;BME280;74981;52.476;16.656;2024-03-23T11:26:56;99011.12;;;8.19;83.41
84758;BME280;74981;52.476;16.656;2024-03-23T11:31:58;98994.31;;;8.06;83.26
84758;BME280;74981;52.476;16.656;2024-03-23T11:37:05;98965.63;;;7.95;83.57
84758;BME280;74981;52.476;16.656;2024-03-23T11:42:07;98970.35;;;7.97;84.20
84758;BME280;74981;52.476;16.656;2024-03-23T11:47:10;98968.86;;;7.93;83.67
84758;BME280;74981;52.476;16.656;2024-03-23T11:52:12;98957.13;;;7.86;82.87
84758;BME280;74981;52.476;16.656;2024-03-23T11:57:15;98942.51;;;7.82;83.36
84758;BME280;74981;52.476;16.656;2024-03-23T12:02:19;98950.83;;;7.78;83.42
84758;BME280;74981;52.476;16.656;2024-03-23T12:07:21;98952.30;;;7.70;83.06
84758;BME280;74981;52.476;16.656;2024-03-23T12:12:24;98938.42;;;7.67;83.79
84758;BME280;74981;52.476;16.656;2024-03-23T12:17:26;98935.04;;;7.61;83.87
84758;BME280;74981;52.476;16.656;2024-03-23T12:22:28;98925.55;;;7.56;83.91
84758;BME280;74981;52.476;16.656;2024-03-23T12:27:31;98924.04;;;7.55;84.04
84758;BME280;74981;52.476;16.656;2024-03-23T12:32:33;98939.60;;;7.44;83.81
84758;BME280;74981;52.476;16.656;2024-03-23T12:37:35;98947.93;;;7.37;83.69
84758;BME280;74981;52.476;16.656;2024-03-23T12:42:38;98963.05;;;7.25;83.74
84758;BME280;74981;52.476;16.656;2024-03-23T12:47:40;98985.14;;;7.10;84.18
84758;BME280;74981;52.476;16.656;2024-03-23T12:52:43;99031.84;;;6.95;83.98
84758;BME280;74981;52.476;16.656;2024-03-23T12:57:46;99060.15;;;6.82;84.79
84758;BME280;74981;52.476;16.656;2024-03-23T13:02:48;99069.52;;;6.75;85.34
84758;BME280;74981;52.476;16.656;2024-03-23T13:07:51;99073.70;;;6.67;84.55
84758;BME280;74981;52.476;16.656;2024-03-23T13:12:53;99086.56;;;6.40;82.91
84758;BME280;74981;52.476;16.656;2024-03-23T13:17:55;99110.70;;;6.04;83.07
84758;BME280;74981;52.476;16.656;2024-03-23T13:22:57;99106.10;;;5.82;83.00
84758;BME280;74981;52.476;16.656;2024-03-23T13:28:00;99127.14;;;5.55;83.31
84758;BME280;74981;52.476;16.656;2024-03-23T13:33:02;99137.95;;;5.42;83.70
84758;BME280;74981;52.476;16.656;2024-03-23T13:38:05;99151.19;;;5.29;83.83
84758;BME280;74981;52.476;16.656;2024-03-23T13:43:07;99161.48;;;5.20;84.04
84758;BME280;74981;52.476;16.656;2024-03-23T13:48:09;99176.29;;;5.09;84.04
84758;BME280;74981;52.476;16.656;2024-03-23T13:53:12;99170.20;;;5.10;84.25
84758;BME280;74981;52.476;16.656;2024-03-23T13:58:14;99177.65;;;5.16;84.40
84758;BME280;74981;52.476;16.656;2024-03-23T14:03:17;99176.30;;;5.28;84.54
84758;BME280;74981;52.476;16.656;2024-03-23T14:08:19;99198.16;;;5.35;84.55
84758;BME280;74981;52.476;16.656;2024-03-23T14:13:21;99210.62;;;5.43;84.63
84758;BME280;74981;52.476;16.656;2024-03-23T14:18:24;99227.33;;;5.51;84.43
84758;BME280;74981;52.476;16.656;2024-03-23T14:23:27;99242.91;;;5.54;84.13
84758;BME280;74981;52.476;16.656;2024-03-23T14:28:30;99242.62;;;5.51;83.82
84758;BME280;74981;52.476;16.656;2024-03-23T14:33:32;99268.62;;;5.38;83.87
84758;BME280;74981;52.476;16.656;2024-03-23T14:38:34;99282.61;;;5.28;84.32
84758;BME280;74981;52.476;16.656;2024-03-23T14:43:37;99298.16;;;5.23;84.72
84758;BME280;74981;52.476;16.656;2024-03-23T14:48:40;99299.73;;;5.23;84.60
84758;BME280;74981;52.476;16.656;2024-03-23T14:53:46;99312.04;;;5.14;83.85
84758;BME280;74981;52.476;16.656;2024-03-23T14:58:52;99328.91;;;5.04;84.00
84758;BME280;74981;52.476;16.656;2024-03-23T15:03:55;99358.40;;;4.99;84.12
84758;BME280;74981;52.476;16.656;2024-03-23T15:08:57;99372.52;;;4.93;84.13
84758;BME280;74981;52.476;16.656;2024-03-23T15:13:59;99368.95;;;4.89;84.07
84758;BME280;74981;52.476;16.656;2024-03-23T15:19:02;99353.86;;;4.88;84.28
84758;BME280;74981;52.476;16.656;2024-03-23T15:24:05;99353.67;;;4.90;84.70
84758;BME280;74981;52.476;16.656;2024-03-23T15:29:08;99349.86;;;4.93;84.40
84758;BME280;74981;52.476;16.656;2024-03-23T15:34:10;99372.60;;;4.86;84.24
84758;BME280;74981;52.476;16.656;2024-03-23T15:39:12;99389.52;;;4.78;84.13
84758;BME280;74981;52.476;16.656;2024-03-23T15:44:14;99411.68;;;4.76;84.37
84758;BME280;74981;52.476;16.656;2024-03-23T15:49:17;99407.86;;;4.80;84.65
84758;BME280;74981;52.476;16.656;2024-03-23T15:54:19;99411.86;;;4.83;83.84
84758;BME280;74981;52.476;16.656;2024-03-23T15:59:22;99427.10;;;4.92;84.21
84758;BME280;74981;52.476;16.656;2024-03-23T16:04:24;99436.60;;;4.95;83.59
84758;BME280;74981;52.476;16.656;2024-03-23T16:09:27;99432.70;;;4.86;83.67
84758;BME280;74981;52.476;16.656;2024-03-23T16:14:29;99429.43;;;4.76;84.04
84758;BME280;74981;52.476;16.656;2024-03-23T16:19:32;99431.28;;;4.73;84.10
84758;BME280;74981;52.476;16.656;2024-03-23T16:24:35;99434.81;;;4.69;84.38
84758;BME280;74981;52.476;16.656;2024-03-23T16:29:37;99433.84;;;4.66;84.57
84758;BME280;74981;52.476;16.656;2024-03-23T16:34:40;99447.89;;;4.61;84.61
84758;BME280;74981;52.476;16.656;2024-03-23T16:39:42;99464.12;;;4.49;84.51
84758;BME280;74981;52.476;16.656;2024-03-23T16:44:44;99465.66;;;4.41;84.09
84758;BME280;74981;52.476;16.656;2024-03-23T16:49:46;99469.24;;;4.29;83.99
84758;BME280;74981;52.476;16.656;2024-03-23T16:54:49;99470.95;;;4.20;84.31
84758;BME280;74981;52.476;16.656;2024-03-23T16:59:51;99456.67;;;4.17;84.29
84758;BME280;74981;52.476;16.656;2024-03-23T17:04:54;99444.66;;;4.15;84.28
84758;BME280;74981;52.476;16.656;2024-03-23T17:09:57;99454.95;;;4.15;84.16
84758;BME280;74981;52.476;16.656;2024-03-23T17:15:03;99473.42;;;4.16;84.08
84758;BME280;74981;52.476;16.656;2024-03-23T17:20:07;99479.95;;;4.15;84.08
84758;BME280;74981;52.476;16.656;2024-03-23T17:25:09;99488.05;;;4.10;84.18
84758;BME280;74981;52.476;16.656;2024-03-23T17:30:14;99504.16;;;4.15;84.32
84758;BME280;74981;52.476;16.656;2024-03-23T17:35:16;99506.70;;;4.19;84.20
84758;BME280;74981;52.476;16.656;2024-03-23T17:40:19;99525.91;;;4.18;84.29
84758;BME280;74981;52.476;16.656;2024-03-23T17:45:21;99552.72;;;4.20;84.22
84758;BME280;74981;52.476;16.656;2024-03-23T17:50:24;99548.45;;;4.25;83.59
84758;BME280;74981;52.476;16.656;2024-03-23T17:55:26;99538.88;;;4.25;83.52
84758;BME280;74981;52.476;16.656;2024-03-23T18:00:29;99539.32;;;4.21;83.47
84758;BME280;74981;52.476;16.656;2024-03-23T18:05:34;99539.80;;;4.24;83.49
84758;BME280;74981;52.476;16.656;2024-03-23T18:10:37;99521.16;;;4.27;83.32
84758;BME280;74981;52.476;16.656;2024-03-23T18:15:40;99511.05;;;4.27;82.64
84758;BME280;74981;52.476;16.656;2024-03-23T18:20:42;99523.02;;;4.15;82.85
84758;BME280;74981;52.476;16.656;2024-03-23T18:25:51;99578.01;;;4.07;82.70
84758;BME280;74981;52.476;16.656;2024-03-23T18:30:57;99612.23;;;4.02;82.84
84758;BME280;74981;52.476;16.656;2024-03-23T18:35:59;99597.89;;;3.94;82.73
84758;BME280;74981;52.476;16.656;2024-03-23T18:41:01;99568.83;;;3.87;82.51
84758;BME280;74981;52.476;16.656;2024-03-23T18:46:04;99558.30;;;3.84;82.40
84758;BME280;74981;52.476;16.656;2024-03-23T18:51:07;99567.86;;;3.77;82.50
84758;BME280;74981;52.476;16.656;2024-03-23T18:56:10;99574.05;;;3.70;82.56
84758;BME280;74981;52.476;16.656;2024-03-23T19:01:13;99570.58;;;3.62;82.67
84758;BME280;74981;52.476;16.656;2024-03-23T19:06:17;99573.20;;;3.60;82.78
84758;BME280;74981;52.476;16.656;2024-03-23T19:11:20;99571.31;;;3.57;83.01
84758;BME280;74981;52.476;16.656;2024-03-23T19:16:23;99565.03;;;3.51;83.18
84758;BME280;74981;52.476;16.656;2024-03-23T19:21:25;99561.95;;;3.42;83.65
84758;BME280;74981;52.476;16.656;2024-03-23T19:26:28;99558.91;;;3.40;83.85
84758;BME280;74981;52.476;16.656;2024-03-23T19:31:30;99557.00;;;3.39;83.99
84758;BME280;74981;52.476;16.656;2024-03-23T19:36:32;99554.25;;;3.36;83.70
84758;BME280;74981;52.476;16.656;2024-03-23T19:41:35;99553.58;;;3.29;84.24
84758;BME280;74981;52.476;16.656;2024-03-23T19:46:37;99556.23;;;3.26;83.84
84758;BME280;74981;52.476;16.656;2024-03-23T19:51:39;99557.81;;;3.21;83.92
84758;BME280;74981;52.476;16.656;2024-03-23T19:56:42;99559.89;;;3.15;83.98
84758;BME280;74981;52.476;16.656;2024-03-23T20:01:46;99559.24;;;3.04;84.43
84758;BME280;74981;52.476;16.656;2024-03-23T20:06:48;99554.64;;;3.01;84.53
84758;BME280;74981;52.476;16.656;2024-03-23T20:11:51;99540.16;;;3.01;84.40
84758;BME280;74981;52.476;16.656;2024-03-23T20:16:53;99551.28;;;3.01;84.67
84758;BME280;74981;52.476;16.656;2024-03-23T20:21:55;99539.00;;;3.00;84.44
84758;BME280;74981;52.476;16.656;2024-03-23T20:26:58;99529.15;;;2.99;84.77
84758;BME280;74981;52.476;16.656;2024-03-23T20:32:00;99526.00;;;2.99;84.55
84758;BME280;74981;52.476;16.656;2024-03-23T20:37:02;99525.41;;;2.97;84.73
84758;BME280;74981;52.476;16.656;2024-03-23T20:42:05;99524.67;;;2.93;84.59
84758;BME280;74981;52.476;16.656;2024-03-23T20:47:07;99518.86;;;2.92;84.94
84758;BME280;74981;52.476;16.656;2024-03-23T20:52:10;99507.73;;;2.94;84.77
84758;BME280;74981;52.476;16.656;2024-03-23T20:57:12;99496.51;;;2.93;85.11
84758;BME280;74981;52.476;16.656;2024-03-23T21:02:14;99498.67;;;2.90;84.99
84758;BME280;74981;52.476;16.656;2024-03-23T21:07:16;99499.84;;;2.89;85.15
84758;BME280;74981;52.476;16.656;2024-03-23T21:12:19;99507.65;;;2.93;85.38
84758;BME280;74981;52.476;16.656;2024-03-23T21:17:21;99504.43;;;2.91;85.51
84758;BME280;74981;52.476;16.656;2024-03-23T21:22:23;99503.66;;;2.88;85.40
84758;BME280;74981;52.476;16.656;2024-03-23T21:27:26;99499.64;;;2.89;85.49
84758;BME280;74981;52.476;16.656;2024-03-23T21:32:28;99499.10;;;2.92;85.16
84758;BME280;74981;52.476;16.656;2024-03-23T21:37:30;99496.86;;;2.88;85.55
84758;BME280;74981;52.476;16.656;2024-03-23T21:42:33;99497.01;;;2.84;85.70
84758;BME280;74981;52.476;16.656;2024-03-23T21:47:35;99490.48;;;2.84;85.81
84758;BME280;74981;52.476;16.656;2024-03-23T21:52:37;99491.25;;;2.85;85.57
84758;BME280;74981;52.476;16.656;2024-03-23T21:57:39;99480.04;;;2.84;85.66
84758;BME280;74981;52.476;16.656;2024-03-23T22:02:42;99473.00;;;2.81;85.64
84758;BME280;74981;52.476;16.656;2024-03-23T22:07:46;99464.53;;;2.83;85.73
84758;BME280;74981;52.476;16.656;2024-03-23T22:12:48;99458.80;;;2.84;85.59
84758;BME280;74981;52.476;16.656;2024-03-23T22:17:50;99453.23;;;2.83;85.55
84758;BME280;74981;52.476;16.656;2024-03-23T22:22:53;99447.95;;;2.80;85.34
84758;BME280;74981;52.476;16.656;2024-03-23T22:27:55;99448.08;;;2.80;85.18
84758;BME280;74981;52.476;16.656;2024-03-23T22:32:57;99452.43;;;2.82;85.68
84758;BME280;74981;52.476;16.656;2024-03-23T22:37:59;99449.41;;;2.79;85.48
84758;BME280;74981;52.476;16.656;2024-03-23T22:43:02;99444.17;;;2.73;85.64
84758;BME280;74981;52.476;16.656;2024-03-23T22:48:06;99440.06;;;2.71;85.45
84758;BME280;74981;52.476;16.656;2024-03-23T22:53:08;99435.96;;;2.72;85.29
84758;BME280;74981;52.476;16.656;2024-03-23T22:58:10;99430.30;;;2.70;85.37
84758;BME280;74981;52.476;16.656;2024-03-23T23:03:13;99429.96;;;2.65;85.20
84758;BME280;74981;52.476;16.656;2024-03-23T23:08:16;99432.42;;;2.62;85.14
84758;BME280;74981;52.476;16.656;2024-03-23T23:13:18;99433.59;;;2.61;85.02
84758;BME280;74981;52.476;16.656;2024-03-23T23:18:20;99430.35;;;2.57;85.39
84758;BME280;74981;52.476;16.656;2024-03-23T23:23:24;99426.92;;;2.61;85.54
84758;BME280;74981;52.476;16.656;2024-03-23T23:28:26;99429.77;;;2.65;85.86
84758;BME280;74981;52.476;16.656;2024-03-23T23:33:28;99426.08;;;2.67;86.06
84758;BME280;74981;52.476;16.656;2024-03-23T23:38:30;99431.63;;;2.78;85.79
84758;BME280;74981;52.476;16.656;2024-03-23T23:43:33;99428.91;;;2.87;86.31
84758;BME280;74981;52.476;16.656;2024-03-23T23:48:35;99420.44;;;2.88;86.25
84758;BME280;74981;52.476;16.656;2024-03-23T23:53:38;99419.88;;;3.01;86.28
84758;BME280;74981;52.476;16.656;2024-03-23T23:58:40;99416.16;;;3.03;86.22
